Time;durP1;ratioP1;P1;durP2;ratioP2;P2;SDS_P1;SDS_P2;PMS_P1;PMS_P2;Temp;Humidity;BMP_temperature;BMP_pressure;BME280_temperature;BME280_humidity;BME280_pressure;Samples;Min_cycle;Max_cycle;Signal;HPM_P1;HPM_P2
2022/12/02 00:02:32;;;;;;;24.92;11.85;;;3.90;99.90;;;;;;5065350;27;20041;-66
2022/12/02 00:05:13;;;;;;;21.80;12.07;;;3.90;99.90;;;;;;5092111;27;20047;-65
2022/12/02 00:07:39;;;;;;;22.80;11.55;;;3.80;99.90;;;;;;5081835;27;20057;-66
2022/12/02 00:10:25;;;;;;;23.23;11.88;;;3.80;99.90;;;;;;5054177;28;20060;-65
2022/12/02 00:12:51;;;;;;;22.60;11.93;;;3.80;99.90;;;;;;5014542;28;20054;-66
2022/12/02 00:15:36;;;;;;;19.20;10.48;;;3.70;99.90;;;;;;5105812;27;20126;-66
2022/12/02 00:18:02;;;;;;;20.77;10.70;;;3.80;99.90;;;;;;5138808;27;20092;-66
2022/12/02 00:20:28;;;;;;;22.45;11.80;;;3.80;99.90;;;;;;5066478;27;20105;-65
2022/12/02 00:22:53;;;;;;;23.58;10.90;;;3.70;99.90;;;;;;5034992;28;20065;-66
2022/12/02 00:25:19;;;;;;;17.73;10.55;;;3.70;99.90;;;;;;5034083;28;20046;-66
2022/12/02 00:27:45;;;;;;;20.08;9.05;;;3.70;99.90;;;;;;5023667;28;20348;-67
2022/12/02 00:30:11;;;;;;;18.40;8.30;;;3.70;99.90;;;;;;5073305;27;20047;-66
2022/12/02 00:32:37;;;;;;;21.05;9.65;;;3.60;99.90;;;;;;5097670;27;20549;-67
2022/12/02 00:35:02;;;;;;;16.40;8.73;;;3.60;99.90;;;;;;5047103;28;20034;-66
2022/12/02 00:37:28;;;;;;;18.90;9.20;;;3.60;99.90;;;;;;5093025;27;20645;-66
2022/12/02 00:39:54;;;;;;;18.50;9.35;;;3.50;99.90;;;;;;5138606;27;20103;-67
2022/12/02 00:42:19;;;;;;;16.52;8.82;;;3.50;99.90;;;;;;5135866;27;20051;-67
2022/12/02 00:47:29;;;;;;;16.00;8.60;;;3.50;99.90;;;;;;5053730;28;20057;-66
2022/12/02 00:49:55;;;;;;;16.27;8.18;;;3.50;99.90;;;;;;5054736;28;20056;-66
2022/12/02 00:52:20;;;;;;;19.48;9.07;;;3.50;99.90;;;;;;5071856;27;20027;-65
2022/12/02 00:54:46;;;;;;;19.27;8.88;;;3.40;99.90;;;;;;5038099;28;20049;-66
2022/12/02 00:57:12;;;;;;;17.20;7.93;;;3.50;99.90;;;;;;5032551;28;20544;-67
2022/12/02 00:59:37;;;;;;;16.10;8.85;;;3.50;99.90;;;;;;5044571;27;20044;-66
2022/12/02 01:02:03;;;;;;;17.63;8.10;;;3.40;99.90;;;;;;5120602;27;20167;-66
2022/12/02 01:04:29;;;;;;;16.55;8.18;;;3.40;99.90;;;;;;5136476;27;20051;-66
2022/12/02 01:06:54;;;;;;;15.32;8.35;;;3.50;99.90;;;;;;5139048;27;20027;-68
2022/12/02 01:09:20;;;;;;;16.30;8.75;;;3.40;99.90;;;;;;5074811;27;20053;-67
2022/12/02 01:11:46;;;;;;;16.40;8.18;;;3.40;99.90;;;;;;5032046;28;20054;-68
2022/12/02 01:14:12;;;;;;;16.10;7.88;;;3.30;99.90;;;;;;5046984;27;20050;-66
2022/12/02 01:16:37;;;;;;;16.40;8.73;;;3.30;99.90;;;;;;5137270;27;20562;-67
2022/12/02 01:19:03;;;;;;;14.88;8.25;;;3.30;99.90;;;;;;5105801;27;20039;-67
2022/12/02 01:21:29;;;;;;;15.88;8.18;;;3.30;99.90;;;;;;5055018;27;20049;-67
2022/12/02 01:23:54;;;;;;;14.13;7.63;;;3.20;99.90;;;;;;5126833;27;20035;-67
2022/12/02 01:26:20;;;;;;;15.40;8.68;;;3.20;99.90;;;;;;5126215;27;20049;-66
2022/12/02 01:28:46;;;;;;;17.25;8.55;;;3.20;99.90;;;;;;5053706;28;20546;-66
2022/12/02 01:31:13;;;;;;;17.05;7.97;;;3.20;99.90;;;;;;5054914;28;20041;-67
2022/12/02 01:33:39;;;;;;;18.20;8.40;;;3.20;99.90;;;;;;5051872;28;20496;-67
2022/12/02 01:36:05;;;;;;;15.20;8.38;;;3.20;99.90;;;;;;5069845;28;20036;-66
2022/12/02 01:38:31;;;;;;;17.80;8.75;;;3.20;99.90;;;;;;5036483;28;20048;-67
2022/12/02 01:40:58;;;;;;;15.93;8.38;;;3.20;99.90;;;;;;5124770;27;20043;-66
2022/12/02 01:43:24;;;;;;;18.27;9.15;;;3.20;99.90;;;;;;5130310;27;20566;-66
2022/12/02 01:45:51;;;;;;;16.70;8.30;;;3.30;99.90;;;;;;5057392;28;20041;-67
2022/12/02 01:48:17;;;;;;;15.50;8.18;;;3.20;99.90;;;;;;5058091;28;20048;-67
2022/12/02 01:50:43;;;;;;;16.15;8.82;;;3.20;99.90;;;;;;5056589;28;20033;-67
2022/12/02 01:53:09;;;;;;;16.08;8.63;;;3.20;99.90;;;;;;5058850;27;20159;-66
2022/12/02 01:55:35;;;;;;;15.27;8.30;;;3.20;99.90;;;;;;5062292;27;20120;-66
2022/12/02 01:58:01;;;;;;;20.55;10.07;;;3.20;99.90;;;;;;5126822;27;20043;-66
2022/12/02 02:00:27;;;;;;;16.65;8.40;;;3.20;99.90;;;;;;5133216;27;20075;-66
2022/12/02 02:02:53;;;;;;;16.00;8.88;;;3.20;99.90;;;;;;5057155;28;20089;-66
2022/12/02 02:05:23;;;;;;;17.13;8.50;;;3.20;99.90;;;;;;5071612;27;20039;-65
2022/12/02 02:07:52;;;;;;;18.98;10.43;;;3.20;99.90;;;;;;5025979;28;20060;-65
2022/12/02 02:10:20;;;;;;;15.57;9.13;;;3.20;99.90;;;;;;5116673;27;20055;-66
2022/12/02 02:12:46;;;;;;;15.88;8.98;;;3.20;99.90;;;;;;5138524;27;20102;-67
2022/12/02 02:15:14;;;;;;;18.55;8.88;;;3.20;99.90;;;;;;5042362;28;20053;-66
2022/12/02 02:17:40;;;;;;;17.48;9.63;;;3.20;99.90;;;;;;5036709;28;20060;-66
2022/12/02 02:20:09;;;;;;;17.35;8.90;;;3.20;99.90;;;;;;5035332;28;20513;-66
2022/12/02 02:22:53;;;;;;;19.38;9.98;;;3.20;99.90;;;;;;5077588;27;20046;-67
2022/12/02 02:25:19;;;;;;;17.85;9.38;;;3.10;99.90;;;;;;5139010;27;20601;-66
2022/12/02 02:27:57;;;;;;;16.58;9.05;;;3.20;99.90;;;;;;5141113;27;20054;-66
2022/12/02 02:30:23;;;;;;;17.90;9.07;;;3.10;99.90;;;;;;5140899;27;20047;-66
2022/12/02 02:32:50;;;;;;;16.38;8.85;;;3.10;99.90;;;;;;5140345;27;20111;-65
2022/12/02 02:35:18;;;;;;;15.25;8.95;;;3.10;99.90;;;;;;5142100;27;20062;-66
2022/12/02 02:37:45;;;;;;;18.23;9.45;;;3.10;99.90;;;;;;5121819;27;20042;-68
2022/12/02 02:40:15;;;;;;;16.45;8.15;;;3.10;99.90;;;;;;5059645;27;20045;-66
2022/12/02 02:42:42;;;;;;;17.52;8.80;;;3.10;99.90;;;;;;5035753;28;20053;-68
2022/12/02 02:45:09;;;;;;;15.95;7.72;;;3.10;99.90;;;;;;5035911;28;20053;-66
2022/12/02 02:47:34;;;;;;;15.88;8.63;;;3.10;99.90;;;;;;5036232;28;20109;-65
2022/12/02 02:50:00;;;;;;;17.90;8.63;;;3.10;99.90;;;;;;5062808;27;20074;-66
2022/12/02 02:52:26;;;;;;;30.30;10.25;;;3.10;99.90;;;;;;5111796;27;20042;-65
2022/12/02 02:54:52;;;;;;;17.55;9.48;;;3.00;99.90;;;;;;5140037;27;20039;-67
2022/12/02 02:57:17;;;;;;;16.95;9.07;;;3.10;99.90;;;;;;5121325;27;20131;-66
2022/12/02 02:59:45;;;;;;;16.95;8.35;;;3.10;99.90;;;;;;5055423;28;20041;-66
2022/12/02 03:02:12;;;;;;;17.88;10.23;;;3.10;99.90;;;;;;5055506;28;20082;-66
2022/12/02 03:04:40;;;;;;;16.05;8.35;;;3.10;99.90;;;;;;5071343;27;20094;-66
2022/12/02 03:07:06;;;;;;;16.52;9.05;;;3.10;99.90;;;;;;5023195;28;20090;-67
2022/12/02 03:09:33;;;;;;;14.32;8.27;;;3.10;99.90;;;;;;5054007;28;20110;-67
2022/12/02 03:11:58;;;;;;;17.20;8.30;;;3.00;99.90;;;;;;5063136;27;20113;-67
2022/12/02 03:14:25;;;;;;;16.17;8.68;;;3.20;99.90;;;;;;5101596;27;20118;-66
2022/12/02 03:16:52;;;;;;;15.27;8.00;;;3.00;99.90;;;;;;5017310;28;20075;-68
2022/12/02 03:19:18;;;;;;;17.42;8.77;;;3.00;99.90;;;;;;5036932;28;20052;-66
2022/12/02 03:21:45;;;;;;;15.75;8.32;;;2.90;99.90;;;;;;5047919;28;20081;-67
2022/12/02 03:24:11;;;;;;;20.20;9.32;;;3.00;99.90;;;;;;5054616;28;20048;-66
2022/12/02 03:26:37;;;;;;;16.77;8.20;;;3.00;99.90;;;;;;5054771;28;20037;-67
2022/12/02 03:29:04;;;;;;;15.75;8.23;;;3.00;99.90;;;;;;5053645;28;20109;-66
2022/12/02 03:31:33;;;;;;;16.35;8.88;;;3.00;99.90;;;;;;5056867;28;20120;-68
2022/12/02 03:33:59;;;;;;;17.80;8.13;;;2.90;99.90;;;;;;5053650;28;20056;-66
2022/12/02 03:36:25;;;;;;;15.48;8.27;;;2.90;99.90;;;;;;5055134;28;20101;-66
2022/12/02 03:38:51;;;;;;;15.45;8.27;;;3.00;99.90;;;;;;5074584;27;20027;-67
2022/12/02 03:41:17;;;;;;;16.88;8.27;;;3.00;99.90;;;;;;5089207;27;20085;-65
2022/12/02 03:43:43;;;;;;;14.82;7.63;;;3.00;99.90;;;;;;5047099;27;20037;-66
2022/12/02 03:46:09;;;;;;;15.48;8.23;;;3.00;99.90;;;;;;5039613;28;20045;-66
2022/12/02 03:48:37;;;;;;;17.08;9.02;;;2.90;99.90;;;;;;5036582;28;20041;-65
2022/12/02 03:51:03;;;;;;;14.02;7.50;;;3.00;99.90;;;;;;5053383;28;20037;-66
2022/12/02 03:53:29;;;;;;;17.10;8.55;;;3.00;99.90;;;;;;5056341;28;20141;-66
2022/12/02 03:55:55;;;;;;;17.25;7.50;;;3.00;99.90;;;;;;5053381;28;20089;-65
2022/12/02 03:58:39;;;;;;;17.65;8.45;;;3.00;99.90;;;;;;5091997;27;20108;-65
2022/12/02 04:01:05;;;;;;;18.83;8.75;;;3.10;99.90;;;;;;5104340;27;20051;-65
2022/12/02 04:03:31;;;;;;;15.48;8.95;;;3.10;99.90;;;;;;5063511;27;20108;-65
2022/12/02 04:05:57;;;;;;;15.32;8.15;;;3.10;99.90;;;;;;5140711;27;20089;-66
2022/12/02 04:08:22;;;;;;;17.70;9.07;;;3.20;99.90;;;;;;5108816;27;20041;-66
2022/12/02 04:10:48;;;;;;;17.40;9.43;;;3.20;99.90;;;;;;5055640;28;20056;-65
2022/12/02 04:13:14;;;;;;;21.13;10.32;;;3.10;99.90;;;;;;5054937;28;20069;-65
2022/12/02 04:15:39;;;;;;;20.10;9.02;;;3.10;99.90;;;;;;5082174;27;20072;-65
2022/12/02 04:18:05;;;;;;;19.40;9.30;;;3.10;99.90;;;;;;5037016;28;20049;-65
2022/12/02 04:20:31;;;;;;;23.45;11.23;;;3.10;99.90;;;;;;5136097;27;20387;-65
2022/12/02 04:22:56;;;;;;;21.55;9.25;;;3.10;99.90;;;;;;5114848;27;20084;-65
2022/12/02 04:25:22;;;;;;;21.48;10.35;;;3.10;99.90;;;;;;5034219;28;20048;-65
2022/12/02 04:27:48;;;;;;;19.42;9.65;;;3.10;99.90;;;;;;5035722;28;20496;-65
2022/12/02 04:30:14;;;;;;;20.10;9.35;;;3.10;99.90;;;;;;5034665;28;20250;-66
2022/12/02 04:32:39;;;;;;;17.85;9.25;;;3.10;99.90;;;;;;5108709;27;20046;-65
2022/12/02 04:35:05;;;;;;;20.17;9.73;;;3.20;99.90;;;;;;5137949;27;20039;-65
2022/12/02 04:37:31;;;;;;;21.10;9.38;;;3.00;99.90;;;;;;5138051;27;20043;-66
2022/12/02 04:39:56;;;;;;;20.42;10.82;;;3.00;99.90;;;;;;5098344;27;20077;-66
2022/12/02 04:42:22;;;;;;;19.23;9.73;;;3.00;99.90;;;;;;5120233;27;20110;-66
2022/12/02 04:44:48;;;;;;;20.23;9.63;;;3.00;99.90;;;;;;5022631;28;20419;-67
2022/12/02 04:47:13;;;;;;;22.50;10.45;;;3.80;99.90;;;;;;5020466;28;20036;-65
2022/12/02 04:49:39;;;;;;;19.70;9.88;;;2.90;99.90;;;;;;5055130;28;20055;-66
2022/12/02 04:52:05;;;;;;;22.23;10.88;;;2.90;99.90;;;;;;5053262;28;20105;-66
2022/12/02 04:54:30;;;;;;;19.85;9.38;;;2.90;99.90;;;;;;5052814;28;20583;-66
2022/12/02 04:56:56;;;;;;;20.63;9.52;;;2.90;99.90;;;;;;5109624;27;20086;-66
2022/12/02 04:59:22;;;;;;;21.58;9.35;;;2.90;99.90;;;;;;5119334;27;20126;-66
2022/12/02 05:01:47;;;;;;;24.88;10.27;;;2.90;99.90;;;;;;5138064;27;20735;-67
2022/12/02 05:04:13;;;;;;;24.85;10.57;;;2.90;99.90;;;;;;5137376;27;20181;-66
2022/12/02 05:06:38;;;;;;;19.92;9.77;;;3.50;99.90;;;;;;5120799;27;20064;-68
2022/12/02 05:09:04;;;;;;;21.83;10.05;;;3.00;99.90;;;;;;5136530;27;20055;-66
2022/12/02 05:11:30;;;;;;;22.48;9.50;;;2.90;99.90;;;;;;5090151;27;20112;-66
2022/12/02 05:13:55;;;;;;;25.27;10.77;;;3.00;99.90;;;;;;5065887;27;20037;-65
2022/12/02 05:16:21;;;;;;;23.10;10.57;;;2.80;99.90;;;;;;5049670;28;20048;-66
2022/12/02 05:18:47;;;;;;;22.58;11.95;;;2.80;99.90;;;;;;5137917;27;20043;-66
2022/12/02 05:21:12;;;;;;;25.92;10.13;;;2.80;99.90;;;;;;5110360;27;20053;-66
2022/12/02 05:23:38;;;;;;;19.40;9.30;;;2.90;99.90;;;;;;5034984;28;20094;-66
2022/12/02 05:26:04;;;;;;;23.17;11.30;;;2.90;99.90;;;;;;5032645;28;20057;-65
2022/12/02 05:28:29;;;;;;;23.88;10.48;;;2.90;99.90;;;;;;5032411;28;20077;-66
2022/12/02 05:30:55;;;;;;;17.77;9.25;;;2.90;99.90;;;;;;5094745;27;20037;-65
2022/12/02 05:33:21;;;;;;;18.45;9.38;;;2.90;99.90;;;;;;5046241;28;20654;-66
2022/12/02 05:35:46;;;;;;;22.80;10.77;;;2.90;99.90;;;;;;5034921;28;20041;-65
2022/12/02 05:38:12;;;;;;;19.92;9.85;;;3.00;99.90;;;;;;5042980;28;20128;-65
2022/12/02 05:40:38;;;;;;;24.02;10.65;;;2.90;99.90;;;;;;5052553;28;20045;-65
2022/12/02 05:43:21;;;;;;;21.92;9.40;;;2.90;99.90;;;;;;5053366;28;20116;-65
2022/12/02 05:45:47;;;;;;;21.50;10.18;;;3.00;99.90;;;;;;5063538;28;20082;-66
2022/12/02 05:48:15;;;;;;;22.65;10.88;;;3.00;99.90;;;;;;5137271;28;20043;-66
2022/12/02 05:50:42;;;;;;;22.25;11.05;;;3.00;99.90;;;;;;5135321;28;20043;-66
2022/12/02 05:53:22;;;;;;;21.15;9.57;;;3.00;99.90;;;;;;5139131;27;20075;-65
2022/12/02 05:55:49;;;;;;;22.77;9.95;;;3.00;99.90;;;;;;5137037;27;20107;-65
2022/12/02 05:58:17;;;;;;;25.73;10.68;;;2.90;99.90;;;;;;5138295;27;20130;-65
2022/12/02 06:00:43;;;;;;;27.42;12.10;;;2.90;99.90;;;;;;5137869;27;20612;-65
2022/12/02 06:03:17;;;;;;;20.35;9.93;;;2.90;99.90;;;;;;5116560;27;20041;-66
2022/12/02 06:05:43;;;;;;;26.42;10.95;;;2.90;99.90;;;;;;5036637;28;20152;-66
2022/12/02 06:08:31;;;;;;;25.75;11.48;;;3.00;99.90;;;;;;5051203;28;20037;-65
2022/12/02 06:11:00;;;;;;;27.52;11.25;;;2.80;99.90;;;;;;5032458;28;20097;-66
2022/12/02 06:13:36;;;;;;;22.17;10.70;;;2.80;99.90;;;;;;5049549;28;20047;-66
2022/12/02 06:16:05;;;;;;;21.20;10.65;;;2.80;99.90;;;;;;5030144;28;20509;-65
2022/12/02 06:18:34;;;;;;;24.60;11.30;;;2.80;99.90;;;;;;5118147;28;20038;-66
2022/12/02 06:21:09;;;;;;;22.08;11.57;;;2.80;99.90;;;;;;5093732;28;20055;-65
2022/12/02 06:23:39;;;;;;;24.75;10.80;;;2.80;99.90;;;;;;5032996;28;20041;-66
2022/12/02 06:26:05;;;;;;;24.50;11.07;;;2.80;99.90;;;;;;5031908;28;20054;-65
2022/12/02 06:28:36;;;;;;;24.27;11.20;;;2.80;99.90;;;;;;5035306;28;20092;-65
2022/12/02 06:31:41;;;;;;;25.33;11.82;;;2.80;99.90;;;;;;5052552;28;20073;-66
2022/12/02 06:34:31;;;;;;;23.52;11.40;;;2.80;99.90;;;;;;5053949;28;20531;-66
2022/12/02 06:37:01;;;;;;;25.70;13.02;;;2.80;99.90;;;;;;5119623;28;20523;-66
2022/12/02 06:39:27;;;;;;;24.70;11.43;;;2.90;99.90;;;;;;5052057;28;20436;-65
2022/12/02 06:41:53;;;;;;;26.05;12.50;;;2.80;99.90;;;;;;5046791;28;20045;-66
2022/12/02 06:47:24;;;;;;;;;;;2.90;99.90;;;;;;5036289;28;20489;-66
2022/12/02 06:49:50;;;;;;;27.30;11.60;;;2.80;99.90;;;;;;5024562;28;20273;-65
2022/12/02 06:52:21;;;;;;;25.60;11.82;;;2.90;99.90;;;;;;5016264;28;20459;-65
2022/12/02 06:54:48;;;;;;;23.15;11.15;;;2.80;99.90;;;;;;5015930;28;20081;-66
2022/12/02 06:57:17;;;;;;;23.48;10.35;;;2.80;99.90;;;;;;5019202;28;20034;-65
2022/12/02 06:59:46;;;;;;;21.30;10.70;;;2.80;99.90;;;;;;5034150;28;20041;-66
2022/12/02 07:02:27;;;;;;;29.65;13.30;;;2.70;99.90;;;;;;5035643;28;20058;-66
2022/12/02 07:04:53;;;;;;;22.52;10.43;;;2.70;99.90;;;;;;5036711;28;20041;-66
2022/12/02 07:07:29;;;;;;;26.85;12.63;;;2.70;99.90;;;;;;5034674;28;20426;-66
2022/12/02 07:09:57;;;;;;;24.55;11.95;;;2.70;99.90;;;;;;5035902;28;20057;-66
2022/12/02 07:12:35;;;;;;;23.35;11.80;;;2.80;99.90;;;;;;5029879;28;20106;-67
2022/12/02 07:15:25;;;;;;;22.45;11.60;;;2.70;99.90;;;;;;5052824;28;20096;-66
2022/12/02 07:17:51;;;;;;;22.55;10.77;;;2.60;99.90;;;;;;5090184;28;20459;-65
2022/12/02 07:20:31;;;;;;;25.73;11.73;;;2.60;99.90;;;;;;5119095;28;20119;-66
2022/12/02 07:23:21;;;;;;;28.60;12.68;;;2.60;99.90;;;;;;5038568;28;20049;-66
2022/12/02 07:25:53;;;;;;;25.70;12.73;;;2.60;99.90;;;;;;5017214;28;20090;-66
2022/12/02 07:28:33;;;;;;;26.63;12.82;;;2.50;99.90;;;;;;5036133;28;20045;-66
2022/12/02 07:31:11;;;;;;;24.80;12.23;;;2.50;99.90;;;;;;5101504;28;20051;-65
2022/12/02 07:33:37;;;;;;;25.35;12.63;;;2.50;99.90;;;;;;5118493;28;20567;-65
2022/12/02 07:36:03;;;;;;;25.35;12.25;;;2.50;99.90;;;;;;5120696;28;20040;-67
2022/12/02 07:38:28;;;;;;;25.63;12.13;;;2.50;99.90;;;;;;5116437;28;20066;-66
2022/12/02 07:40:54;;;;;;;25.45;13.07;;;2.50;99.90;;;;;;5119707;28;20069;-65
2022/12/02 07:43:20;;;;;;;25.92;11.52;;;2.50;99.90;;;;;;5117881;28;20044;-66
2022/12/02 07:45:45;;;;;;;24.08;11.73;;;2.50;99.90;;;;;;5117620;28;20079;-66
2022/12/02 07:48:11;;;;;;;30.88;13.27;;;3.00;99.90;;;;;;5050507;28;20053;-66
2022/12/02 07:50:37;;;;;;;29.80;12.98;;;2.60;99.90;;;;;;5034485;28;20046;-66
2022/12/02 07:53:03;;;;;;;27.77;12.68;;;2.50;99.90;;;;;;5036361;28;20045;-66
2022/12/02 07:55:29;;;;;;;29.40;13.80;;;2.50;99.90;;;;;;5034388;28;20049;-67
2022/12/02 07:57:54;;;;;;;25.90;12.68;;;2.50;99.90;;;;;;5035969;28;20129;-65
2022/12/02 08:00:21;;;;;;;26.40;12.48;;;2.50;99.90;;;;;;5035151;28;20066;-65
2022/12/02 08:02:47;;;;;;;28.80;12.52;;;2.50;99.90;;;;;;5034179;28;20088;-66
2022/12/02 08:05:12;;;;;;;30.27;14.15;;;2.50;99.90;;;;;;5017425;28;20046;-66
2022/12/02 08:07:38;;;;;;;28.50;12.85;;;2.50;99.90;;;;;;5015738;28;20042;-66
2022/12/02 08:10:05;;;;;;;21.00;11.55;;;2.50;99.90;;;;;;5033796;28;20053;-67
2022/12/02 08:12:31;;;;;;;28.33;13.07;;;2.50;99.90;;;;;;5032364;28;20058;-66
2022/12/02 08:14:57;;;;;;;29.17;13.45;;;2.50;99.90;;;;;;5084705;28;20111;-67
2022/12/02 08:17:22;;;;;;;28.05;12.50;;;2.50;99.90;;;;;;5118420;28;20095;-67
2022/12/02 08:19:48;;;;;;;30.33;12.13;;;2.50;99.90;;;;;;5108955;28;20043;-67
2022/12/02 08:22:14;;;;;;;29.55;13.75;;;2.50;99.90;;;;;;5007177;28;20093;-66
2022/12/02 08:24:40;;;;;;;26.10;11.73;;;2.50;99.90;;;;;;5003697;28;20504;-66
2022/12/02 08:27:05;;;;;;;24.42;12.93;;;2.50;99.90;;;;;;5007117;28;20058;-66
2022/12/02 08:29:31;;;;;;;30.60;13.45;;;2.50;99.90;;;;;;4993212;28;20042;-67
2022/12/02 08:31:57;;;;;;;26.83;12.00;;;2.50;99.90;;;;;;5013757;28;20469;-66
2022/12/02 08:34:22;;;;;;;29.27;12.35;;;2.50;99.90;;;;;;4979567;28;20050;-67
2022/12/02 08:36:48;;;;;;;31.73;13.52;;;2.50;99.90;;;;;;5015197;28;20066;-67
2022/12/02 08:39:14;;;;;;;31.60;13.45;;;2.50;99.90;;;;;;5013758;28;20042;-65
2022/12/02 08:41:39;;;;;;;28.15;13.63;;;2.50;99.90;;;;;;5012581;28;20049;-66
2022/12/02 08:44:05;;;;;;;25.73;12.05;;;2.50;99.90;;;;;;5016381;28;20057;-66
2022/12/02 08:46:31;;;;;;;33.22;12.85;;;2.50;99.90;;;;;;5013640;28;20046;-65
2022/12/02 08:48:57;;;;;;;31.83;13.48;;;2.50;99.90;;;;;;5014400;28;20046;-65
2022/12/02 08:51:23;;;;;;;29.20;12.73;;;2.50;99.90;;;;;;5008733;28;20095;-66
2022/12/02 08:53:49;;;;;;;28.73;12.13;;;2.50;99.90;;;;;;4992989;28;20091;-66
2022/12/02 08:56:15;;;;;;;30.10;13.63;;;2.60;99.90;;;;;;5000783;28;20039;-65
2022/12/02 08:58:40;;;;;;;33.70;14.07;;;2.60;99.90;;;;;;4998076;28;20130;-66
2022/12/02 09:01:06;;;;;;;29.38;12.70;;;2.60;99.90;;;;;;5002118;28;20034;-65
2022/12/02 09:03:32;;;;;;;25.65;11.70;;;2.60;99.90;;;;;;5010024;28;20044;-67
2022/12/02 09:05:58;;;;;;;28.15;12.48;;;2.60;99.90;;;;;;5004450;28;20042;-66
2022/12/02 09:08:24;;;;;;;28.38;12.25;;;2.60;99.90;;;;;;5001462;28;20183;-65
2022/12/02 09:10:50;;;;;;;29.75;12.07;;;2.60;99.90;;;;;;5003795;28;20082;-66
2022/12/02 09:13:15;;;;;;;28.08;12.43;;;2.60;99.90;;;;;;5003540;28;20155;-65
2022/12/02 09:15:41;;;;;;;25.90;11.98;;;2.60;99.90;;;;;;5014349;28;20408;-66
2022/12/02 09:18:07;;;;;;;25.52;12.38;;;2.60;99.90;;;;;;4998151;28;20045;-65
2022/12/02 09:20:33;;;;;;;30.63;15.07;;;2.60;99.90;;;;;;4997324;28;20039;-65
2022/12/02 09:23:00;;;;;;;30.88;13.32;;;2.60;99.90;;;;;;5034913;28;20053;-65
2022/12/02 09:25:26;;;;;;;29.65;13.07;;;2.60;99.90;;;;;;5033324;28;20057;-65
2022/12/02 09:27:52;;;;;;;28.60;12.07;;;2.50;99.90;;;;;;5016772;28;20049;-66
2022/12/02 09:30:18;;;;;;;30.80;13.75;;;2.50;99.90;;;;;;5032434;28;20137;-65
2022/12/02 09:32:44;;;;;;;27.13;11.77;;;2.50;99.90;;;;;;5034020;28;20042;-66
2022/12/02 09:35:09;;;;;;;25.10;11.55;;;2.70;99.90;;;;;;5033682;28;20087;-66
2022/12/02 09:37:35;;;;;;;27.95;11.57;;;2.50;99.90;;;;;;5033016;28;20046;-65
2022/12/02 09:40:01;;;;;;;26.50;12.07;;;2.60;99.90;;;;;;5033765;28;20041;-66
2022/12/02 09:42:27;;;;;;;25.00;11.02;;;2.50;99.90;;;;;;5030780;28;20051;-66
2022/12/02 09:44:53;;;;;;;25.00;11.50;;;2.50;99.90;;;;;;5033247;28;20110;-66
2022/12/02 09:47:20;;;;;;;23.52;10.98;;;2.50;99.90;;;;;;5031962;28;20077;-66
2022/12/02 09:49:46;;;;;;;23.10;10.02;;;2.50;99.90;;;;;;5033929;28;20051;-67
2022/12/02 09:52:25;;;;;;;25.30;11.15;;;2.50;99.90;;;;;;5033372;28;20050;-67
2022/12/02 09:54:57;;;;;;;21.05;9.98;;;2.50;99.90;;;;;;5032716;28;20057;-66
2022/12/02 09:57:29;;;;;;;26.27;10.85;;;2.50;99.90;;;;;;5034781;28;20049;-66
2022/12/02 09:59:57;;;;;;;22.67;9.35;;;2.50;99.90;;;;;;5032748;28;20085;-65
2022/12/02 10:02:38;;;;;;;20.90;9.85;;;2.50;99.90;;;;;;5035733;28;20183;-65
2022/12/02 10:05:10;;;;;;;22.52;9.55;;;2.50;99.90;;;;;;5037921;28;20411;-65
2022/12/02 10:07:36;;;;;;;21.58;10.32;;;2.50;99.90;;;;;;5035358;28;20061;-66
2022/12/02 10:10:02;;;;;;;21.77;10.35;;;2.50;99.90;;;;;;5036980;28;20050;-65
2022/12/02 10:12:28;;;;;;;23.63;10.10;;;2.50;99.90;;;;;;5034394;28;20054;-66
2022/12/02 10:14:55;;;;;;;19.50;9.43;;;2.50;99.90;;;;;;5037588;28;20090;-66
2022/12/02 10:17:21;;;;;;;25.83;10.43;;;2.50;99.90;;;;;;5035061;28;20054;-65
2022/12/02 10:19:48;;;;;;;22.38;10.00;;;2.50;99.90;;;;;;5035701;28;20063;-67
2022/12/02 10:22:20;;;;;;;19.38;8.75;;;2.50;99.90;;;;;;5017197;28;20054;-67
2022/12/02 10:24:48;;;;;;;22.00;10.65;;;2.50;99.90;;;;;;4996723;28;20050;-66
2022/12/02 10:27:43;;;;;;;22.15;10.52;;;2.40;99.90;;;;;;4998494;28;20047;-65
2022/12/02 10:30:24;;;;;;;21.80;10.38;;;2.70;99.90;;;;;;4983061;28;20051;-65
2022/12/02 10:33:05;;;;;;;25.38;10.63;;;2.40;99.90;;;;;;4997276;28;20070;-65
2022/12/02 10:35:48;;;;;;;25.88;11.57;;;2.40;99.90;;;;;;4997255;28;20062;-66
2022/12/02 10:38:40;;;;;;;22.63;10.82;;;2.30;99.90;;;;;;4996295;28;20531;-67
2022/12/02 10:41:27;;;;;;;27.60;11.88;;;2.30;99.90;;;;;;4997156;28;20554;-67
2022/12/02 10:44:02;;;;;;;23.35;10.43;;;2.30;99.90;;;;;;4998071;28;20514;-65
2022/12/02 10:46:28;;;;;;;24.88;12.00;;;2.30;99.90;;;;;;4996317;28;20054;-66
2022/12/02 10:48:53;;;;;;;28.55;11.88;;;2.30;99.90;;;;;;4996569;28;20055;-65
2022/12/02 10:51:20;;;;;;;24.38;10.60;;;2.40;99.90;;;;;;4994779;28;20060;-65
2022/12/02 10:53:55;;;;;;;23.38;10.95;;;2.40;99.90;;;;;;4996297;28;20090;-66
2022/12/02 10:56:22;;;;;;;24.23;11.70;;;2.40;99.90;;;;;;4997567;28;20072;-66
2022/12/02 10:58:50;;;;;;;24.92;11.80;;;2.30;99.90;;;;;;4996274;28;20053;-65
2022/12/02 11:01:19;;;;;;;26.88;12.02;;;2.50;99.90;;;;;;4996620;28;20053;-65
2022/12/02 11:03:46;;;;;;;24.50;11.85;;;2.40;99.90;;;;;;4996147;28;20046;-66
2022/12/02 11:06:19;;;;;;;26.38;11.70;;;2.30;99.90;;;;;;4996518;28;20065;-66
2022/12/02 11:08:47;;;;;;;28.70;12.63;;;2.40;99.90;;;;;;4996896;28;20120;-68
2022/12/02 11:11:34;;;;;;;25.60;12.27;;;2.40;99.90;;;;;;5011291;28;20054;-65
2022/12/02 11:14:02;;;;;;;;;;;2.80;99.90;;;;;;5021095;28;20059;-65
2022/12/02 11:16:28;;;;;;;28.65;13.27;;;2.40;99.90;;;;;;5029846;28;19944;-65
2022/12/02 11:19:11;;;;;;;30.20;13.30;;;2.40;99.90;;;;;;4995869;28;20047;-66
2022/12/02 11:21:38;;;;;;;30.50;13.38;;;2.40;99.90;;;;;;5058799;28;20047;-66
2022/12/02 11:24:22;;;;;;;26.90;14.80;;;2.40;99.90;;;;;;5118083;28;20048;-66
2022/12/02 11:27:03;;;;;;;34.72;18.67;;;2.40;99.90;;;;;;5013677;28;20609;-66
2022/12/02 11:29:30;;;;;;;34.67;19.55;;;2.40;99.90;;;;;;5005465;28;20095;-67
2022/12/02 11:32:20;;;;;;;36.95;18.88;;;2.40;99.90;;;;;;5003459;28;20424;-67
2022/12/02 11:35:00;;;;;;;37.35;20.60;;;2.40;99.90;;;;;;4999310;28;20453;-66
2022/12/02 11:37:26;;;;;;;34.80;18.33;;;2.40;99.90;;;;;;5000285;28;20046;-67
2022/12/02 11:39:56;;;;;;;36.00;19.42;;;2.40;99.90;;;;;;4997193;28;20050;-66
2022/12/02 11:42:30;;;;;;;38.40;25.52;;;2.40;99.90;;;;;;4994431;28;20502;-66
2022/12/02 11:45:14;;;;;;;38.35;21.33;;;2.40;99.90;;;;;;4995796;28;20103;-67
2022/12/02 11:47:53;;;;;;;73.72;50.38;;;2.40;99.90;;;;;;4995093;28;20397;-66
2022/12/02 11:50:31;;;;;;;40.15;23.17;;;2.40;99.90;;;;;;4995189;28;20046;-66
2022/12/02 11:53:01;;;;;;;105.45;70.25;;;2.40;99.90;;;;;;4997495;28;20050;-67
2022/12/02 11:55:39;;;;;;;42.92;25.08;;;2.40;99.90;;;;;;4993925;28;20077;-66
2022/12/02 11:58:18;;;;;;;40.20;23.50;;;2.40;99.90;;;;;;5002083;28;20042;-68
2022/12/02 12:01:14;;;;;;;34.25;17.55;;;2.40;99.90;;;;;;5003728;28;20074;-66
2022/12/02 12:03:42;;;;;;;39.08;21.38;;;2.40;99.90;;;;;;5003963;28;20050;-66
2022/12/02 12:06:16;;;;;;;37.85;20.02;;;2.40;99.90;;;;;;5018747;28;20038;-67
2022/12/02 12:08:54;;;;;;;33.90;17.20;;;2.50;99.90;;;;;;5015482;28;20121;-68
2022/12/02 12:11:34;;;;;;;29.55;15.57;;;2.50;99.90;;;;;;5006086;28;20054;-67
2022/12/02 12:14:11;;;;;;;30.48;16.27;;;2.50;99.90;;;;;;5024318;28;20055;-67
2022/12/02 12:16:46;;;;;;;37.33;21.08;;;2.50;99.90;;;;;;5005826;28;20064;-67
2022/12/02 12:19:11;;;;;;;34.28;18.40;;;2.50;99.90;;;;;;5007700;28;20042;-66
2022/12/02 12:21:41;;;;;;;76.43;48.10;;;2.50;99.90;;;;;;5007493;28;20064;-65
2022/12/02 12:24:25;;;;;;;97.18;67.63;;;2.50;99.90;;;;;;5002279;28;20054;-66
2022/12/02 12:27:03;;;;;;;35.65;18.77;;;2.50;99.90;;;;;;5002921;28;20196;-67
2022/12/02 12:29:33;;;;;;;37.28;24.30;;;2.50;99.90;;;;;;5005530;28;20043;-66
2022/12/02 12:31:59;;;;;;;40.95;27.73;;;2.50;99.90;;;;;;5004165;28;20129;-68
2022/12/02 12:34:25;;;;;;;35.38;19.65;;;2.50;99.90;;;;;;5005345;28;20030;-66
2022/12/02 12:36:51;;;;;;;35.80;16.80;;;2.50;99.90;;;;;;5005222;28;20502;-67
2022/12/02 12:39:17;;;;;;;30.83;15.25;;;2.50;99.90;;;;;;5077146;28;20028;-65
2022/12/02 12:41:44;;;;;;;30.55;14.80;;;2.50;99.90;;;;;;5114940;28;20045;-66
2022/12/02 12:44:10;;;;;;;30.08;16.17;;;2.50;99.90;;;;;;5118487;28;20039;-67
2022/12/02 12:46:36;;;;;;;31.55;15.38;;;2.50;99.90;;;;;;5072501;28;20059;-68
2022/12/02 12:49:01;;;;;;;35.97;17.70;;;2.50;99.90;;;;;;5092332;28;20061;-67
2022/12/02 12:51:27;;;;;;;31.30;16.27;;;2.70;99.90;;;;;;5050155;28;20062;-67
2022/12/02 12:53:53;;;;;;;30.35;15.68;;;2.50;99.90;;;;;;5014999;28;20031;-67
2022/12/02 12:56:18;;;;;;;30.42;14.65;;;2.50;99.90;;;;;;5005909;28;20088;-68